createdAt,value
2022-12-03T00:01:16.862Z,100628.62
2022-12-03T00:03:44.604Z,100636.09
2022-12-03T00:06:11.993Z,100629.28
2022-12-03T00:08:39.361Z,100634.59
2022-12-03T00:11:07.774Z,100627.19
2022-12-03T00:13:35.201Z,100632.88
2022-12-03T00:16:02.734Z,100636.94
2022-12-03T00:18:30.378Z,100639.06
2022-12-03T00:20:57.709Z,100639.78
2022-12-03T00:23:25.216Z,100636.38
2022-12-03T00:25:53.015Z,100645.91
2022-12-03T00:28:20.344Z,100640.25
2022-12-03T00:30:47.755Z,100642.16
2022-12-03T00:33:15.425Z,100648.31
2022-12-03T00:35:42.806Z,100648.56
2022-12-03T00:38:10.151Z,100652.59
2022-12-03T00:40:37.737Z,100641.13
2022-12-03T00:43:05.047Z,100647.22
2022-12-03T00:45:32.421Z,100659.34
2022-12-03T00:48:00.025Z,100661.91
2022-12-03T00:50:27.344Z,100656.56
2022-12-03T00:52:54.702Z,100655.25
2022-12-03T00:55:22.293Z,100651.09
2022-12-03T00:57:49.649Z,100653.81
2022-12-03T01:00:17.249Z,100645.94
2022-12-03T01:02:44.859Z,100644.97
2022-12-03T01:05:12.275Z,100651.38
2022-12-03T01:07:39.781Z,100651.91
2022-12-03T01:10:07.782Z,100649.50
2022-12-03T01:12:35.092Z,100642.88
2022-12-03T01:15:02.433Z,100643.03
2022-12-03T01:17:30.218Z,100636.34
2022-12-03T01:19:59.043Z,100640.72
2022-12-03T01:22:26.420Z,100645.78
2022-12-03T01:24:54.333Z,100637.81
2022-12-03T01:27:22.444Z,100642.50
2022-12-03T01:29:49.764Z,100652.81
2022-12-03T01:32:17.475Z,100639.06
2022-12-03T01:34:54.867Z,100648.53
2022-12-03T01:37:24.954Z,100658.19
2022-12-03T01:39:52.354Z,100657.06
2022-12-03T01:42:24.317Z,100654.00
2022-12-03T01:44:53.345Z,100650.03
2022-12-03T01:47:22.305Z,100646.19
2022-12-03T01:49:53.315Z,100652.50
2022-12-03T01:52:24.035Z,100653.41
2022-12-03T01:54:53.980Z,100650.94
2022-12-03T01:57:43.932Z,100657.37
2022-12-03T02:00:14.469Z,100644.47
2022-12-03T02:02:42.086Z,100646.81
2022-12-03T02:05:16.741Z,100639.72
2022-12-03T02:07:44.131Z,100639.97
2022-12-03T02:10:12.627Z,100642.75
2022-12-03T02:13:03.725Z,100647.03
2022-12-03T02:15:31.323Z,100646.06
2022-12-03T02:17:58.636Z,100651.97
2022-12-03T02:20:26.003Z,100646.72
2022-12-03T02:23:13.665Z,100651.97
2022-12-03T02:25:41.049Z,100653.59
2022-12-03T02:28:08.857Z,100643.53
2022-12-03T02:30:36.230Z,100646.81
2022-12-03T02:33:03.607Z,100635.59
2022-12-03T02:35:33.563Z,100648.25
2022-12-03T02:38:26.197Z,100644.72
2022-12-03T02:40:55.511Z,100628.88
2022-12-03T02:43:22.866Z,100650.31
2022-12-03T02:45:55.175Z,100637.78
2022-12-03T02:48:31.002Z,100642.19
2022-12-03T02:51:00.280Z,100638.72
2022-12-03T02:53:33.743Z,100635.25
2022-12-03T02:56:01.930Z,100641.63
2022-12-03T02:58:30.147Z,100642.66
2022-12-03T03:00:57.569Z,100644.69
2022-12-03T03:03:25.145Z,100637.63
2022-12-03T03:05:52.828Z,100641.75
2022-12-03T03:08:20.228Z,100640.16
2022-12-03T03:10:47.649Z,100650.56
2022-12-03T03:13:17.040Z,100641.28
2022-12-03T03:15:44.515Z,100644.75
2022-12-03T03:18:12.661Z,100645.56
2022-12-03T03:20:40.350Z,100643.28
2022-12-03T03:23:10.667Z,100644.81
2022-12-03T03:25:38.769Z,100647.81
2022-12-03T03:28:06.412Z,100639.47
2022-12-03T03:30:33.959Z,100644.13
2022-12-03T03:33:01.260Z,100640.16
2022-12-03T03:35:28.931Z,100632.97
2022-12-03T03:37:56.315Z,100630.81
2022-12-03T03:40:23.687Z,100631.72
2022-12-03T03:42:51.477Z,100634.19
2022-12-03T03:45:20.667Z,100630.06
2022-12-03T03:47:51.672Z,100634.63
2022-12-03T03:50:19.019Z,100632.91
2022-12-03T03:52:46.360Z,100634.66
2022-12-03T03:55:14.084Z,100628.81
2022-12-03T03:57:42.274Z,100638.84
2022-12-03T04:00:10.045Z,100633.69
2022-12-03T04:02:37.674Z,100631.66
2022-12-03T04:05:05.411Z,100631.22
2022-12-03T04:07:32.805Z,100632.84
2022-12-03T04:10:20.430Z,100641.59
2022-12-03T04:12:57.217Z,100640.53
2022-12-03T04:15:24.994Z,100643.44
2022-12-03T04:18:10.777Z,100645.78
2022-12-03T04:20:38.680Z,100631.69
2022-12-03T04:23:06.238Z,100639.63
2022-12-03T04:25:52.405Z,100637.75
2022-12-03T04:28:39.224Z,100639.66
2022-12-03T04:31:25.899Z,100639.72
2022-12-03T04:34:12.375Z,100639.31
2022-12-03T04:36:39.730Z,100637.78
2022-12-03T04:39:07.359Z,100650.84
2022-12-03T04:41:34.668Z,100637.47
2022-12-03T04:44:21.000Z,100642.19
2022-12-03T04:46:48.577Z,100643.28
2022-12-03T04:49:15.963Z,100631.84
2022-12-03T04:51:43.319Z,100642.38
2022-12-03T04:54:10.949Z,100640.06
2022-12-03T04:56:38.302Z,100651.44
2022-12-03T04:59:06.659Z,100652.34
2022-12-03T05:01:36.599Z,100645.28
2022-12-03T05:04:04.033Z,100649.94
2022-12-03T05:06:31.383Z,100649.12
2022-12-03T05:08:59.006Z,100657.19
2022-12-03T05:11:26.329Z,100651.69
2022-12-03T05:13:53.854Z,100665.44
2022-12-03T05:16:21.505Z,100675.91
2022-12-03T05:18:48.892Z,100676.09
2022-12-03T05:21:16.263Z,100674.63
2022-12-03T05:23:44.131Z,100663.00
2022-12-03T05:26:11.462Z,100663.13
2022-12-03T05:28:38.839Z,100669.22
2022-12-03T05:31:06.575Z,100663.16
2022-12-03T05:33:34.076Z,100673.94
2022-12-03T05:36:01.428Z,100669.75
2022-12-03T05:38:29.042Z,100676.91
2022-12-03T05:40:56.440Z,100672.75
2022-12-03T05:43:24.180Z,100677.84
2022-12-03T05:45:51.848Z,100679.69
2022-12-03T05:48:19.241Z,100675.06
2022-12-03T05:50:47.077Z,100685.06
2022-12-03T05:53:15.198Z,100690.59
2022-12-03T05:55:42.593Z,100688.94
2022-12-03T05:58:10.014Z,100685.41
2022-12-03T06:00:42.459Z,100690.47
2022-12-03T06:03:11.007Z,100687.63
2022-12-03T06:05:38.561Z,100683.25
2022-12-03T06:08:06.006Z,100686.88
2022-12-03T06:10:33.639Z,100682.41
2022-12-03T06:13:00.998Z,100691.19
2022-12-03T06:15:28.419Z,100690.03
2022-12-03T06:17:56.103Z,100686.19
2022-12-03T06:20:23.431Z,100680.13
2022-12-03T06:22:50.774Z,100674.37
2022-12-03T06:25:18.467Z,100671.84
2022-12-03T06:27:45.796Z,100673.00
2022-12-03T06:30:13.751Z,100676.53
2022-12-03T06:32:41.413Z,100682.91
2022-12-03T06:35:09.155Z,100686.38
2022-12-03T06:37:36.496Z,100682.66
2022-12-03T06:40:04.324Z,100675.34
2022-12-03T06:42:31.676Z,100673.41
2022-12-03T06:44:59.035Z,100683.88
2022-12-03T06:47:26.677Z,100680.56
2022-12-03T06:49:54.022Z,100685.41
2022-12-03T06:52:21.406Z,100680.69
2022-12-03T06:54:49.050Z,100676.88
2022-12-03T06:57:16.427Z,100691.00
2022-12-03T06:59:43.760Z,100688.28
2022-12-03T07:02:12.669Z,100687.44
2022-12-03T07:04:44.839Z,100693.69
2022-12-03T07:07:14.226Z,100688.72
2022-12-03T07:09:41.567Z,100698.06
2022-12-03T07:12:08.878Z,100691.88
2022-12-03T07:14:36.636Z,100691.13
2022-12-03T07:17:04.009Z,100695.22
2022-12-03T07:19:32.933Z,100688.75
2022-12-03T07:22:00.884Z,100695.19
2022-12-03T07:24:28.209Z,100693.19
2022-12-03T07:26:55.637Z,100688.34
2022-12-03T07:29:23.317Z,100683.34
2022-12-03T07:31:50.699Z,100693.91
2022-12-03T07:34:18.050Z,100690.78
2022-12-03T07:36:45.809Z,100698.69
2022-12-03T07:39:13.528Z,100694.00
2022-12-03T07:41:40.865Z,100690.94
2022-12-03T07:44:13.967Z,100684.09
2022-12-03T07:46:42.428Z,100688.63
2022-12-03T07:49:10.311Z,100683.91
2022-12-03T07:51:37.655Z,100685.22
2022-12-03T07:54:05.089Z,100682.25
2022-12-03T07:56:32.712Z,100682.41
2022-12-03T07:59:00.075Z,100677.37
2022-12-03T08:01:27.603Z,100676.63
2022-12-03T08:03:55.293Z,100680.22
2022-12-03T08:06:22.671Z,100679.62
2022-12-03T08:08:50.419Z,100678.66
2022-12-03T08:11:18.048Z,100678.81
2022-12-03T08:13:45.407Z,100693.19
2022-12-03T08:16:19.088Z,100688.06
2022-12-03T08:18:47.210Z,100699.94
2022-12-03T08:21:16.108Z,100700.84
2022-12-03T08:23:43.550Z,100708.56
2022-12-03T08:26:24.864Z,100695.28
2022-12-03T08:28:52.778Z,100698.25
2022-12-03T08:31:32.881Z,100689.53
2022-12-03T08:34:20.369Z,100682.88
2022-12-03T08:36:49.750Z,100687.59
2022-12-03T08:39:37.896Z,100692.94
2022-12-03T08:42:42.046Z,100696.66
2022-12-03T08:45:28.042Z,100700.88
2022-12-03T08:48:16.993Z,100707.38
2022-12-03T08:50:44.592Z,100714.72
2022-12-03T08:53:37.138Z,100723.19
2022-12-03T08:56:06.650Z,100711.84
2022-12-03T08:58:37.750Z,100717.03
2022-12-03T09:01:11.221Z,100717.56
2022-12-03T09:03:52.167Z,100710.00
2022-12-03T09:06:19.650Z,100710.88
2022-12-03T09:08:47.384Z,100704.81
2022-12-03T09:11:14.802Z,100707.87
2022-12-03T09:13:42.245Z,100704.66
2022-12-03T09:16:09.870Z,100696.91
2022-12-03T09:18:37.338Z,100696.12
2022-12-03T09:21:04.954Z,100693.25
2022-12-03T09:23:32.581Z,100691.56
2022-12-03T09:25:59.979Z,100698.81
2022-12-03T09:28:27.361Z,100691.66
2022-12-03T09:30:54.983Z,100689.09
2022-12-03T09:33:22.420Z,100691.22
2022-12-03T09:35:49.825Z,100682.50
2022-12-03T09:38:17.540Z,100692.03
2022-12-03T09:40:44.890Z,100678.78
2022-12-03T09:43:12.260Z,100679.88
2022-12-03T09:45:40.018Z,100685.34
2022-12-03T09:48:07.419Z,100695.84
2022-12-03T09:50:34.806Z,100683.53
2022-12-03T09:53:02.842Z,100682.75
2022-12-03T09:55:30.439Z,100674.28
2022-12-03T09:57:57.833Z,100669.31
2022-12-03T10:00:29.584Z,100672.69
2022-12-03T10:02:58.726Z,100670.06
2022-12-03T10:05:26.114Z,100647.56
2022-12-03T10:08:03.583Z,100651.91
2022-12-03T10:10:31.241Z,100651.03
2022-12-03T10:12:58.689Z,100666.78
2022-12-03T10:15:26.046Z,100663.94
2022-12-03T10:17:55.037Z,100658.53
2022-12-03T10:20:23.177Z,100649.91
2022-12-03T10:22:50.545Z,100652.59
2022-12-03T10:25:21.992Z,100649.72
2022-12-03T10:28:00.750Z,100640.94
2022-12-03T10:30:28.758Z,100636.63
2022-12-03T10:32:57.552Z,100630.59
2022-12-03T10:35:46.035Z,100626.94
2022-12-03T10:38:16.339Z,100615.59
2022-12-03T10:40:43.799Z,100616.78
2022-12-03T10:43:19.209Z,100625.47
2022-12-03T10:45:47.797Z,100632.00
2022-12-03T10:48:15.043Z,100628.28
2022-12-03T10:50:55.905Z,100621.72
2022-12-03T10:53:27.243Z,100614.16
2022-12-03T10:55:59.621Z,100609.19
2022-12-03T10:58:31.626Z,100601.00
2022-12-03T11:00:59.110Z,100605.47
2022-12-03T11:03:29.905Z,100604.62
2022-12-03T11:05:57.443Z,100602.94
2022-12-03T11:08:27.058Z,100592.91
2022-12-03T11:11:08.231Z,100594.25
2022-12-03T11:13:35.399Z,100594.62
2022-12-03T11:16:04.946Z,100585.75
2022-12-03T11:18:38.553Z,100581.78
2022-12-03T11:21:11.648Z,100572.37
2022-12-03T11:23:44.660Z,100577.94
2022-12-03T11:26:19.222Z,100562.78
2022-12-03T11:28:46.907Z,100563.28
2022-12-03T11:31:37.469Z,100563.00
2022-12-03T11:34:17.304Z,100574.03
2022-12-03T11:37:09.408Z,100565.69
2022-12-03T11:39:52.095Z,100559.25
2022-12-03T11:42:26.172Z,100566.53
2022-12-03T11:45:02.666Z,100559.94
2022-12-03T11:47:40.914Z,100561.59
2022-12-03T11:50:21.043Z,100561.66
2022-12-03T11:52:56.481Z,100549.94
2022-12-03T11:55:30.297Z,100561.56
2022-12-03T11:58:05.724Z,100550.88
2022-12-03T12:00:33.195Z,100546.31
2022-12-03T12:03:00.880Z,100543.78
2022-12-03T12:05:32.811Z,100538.91
2022-12-03T12:08:01.295Z,100536.63
2022-12-03T12:10:37.978Z,100522.94
2022-12-03T12:13:05.401Z,100532.66
2022-12-03T12:15:39.287Z,100534.16
2022-12-03T12:18:37.624Z,100531.81
2022-12-03T12:21:43.045Z,100537.12
2022-12-03T12:24:36.601Z,100534.53
2022-12-03T12:27:11.674Z,100537.84
2022-12-03T12:29:39.862Z,100538.50
2022-12-03T12:32:15.714Z,100523.78
2022-12-03T12:34:45.027Z,100543.09
2022-12-03T12:37:23.434Z,100531.78
2022-12-03T12:39:53.314Z,100523.78
2022-12-03T12:42:31.571Z,100517.63
2022-12-03T12:45:01.344Z,100519.81
2022-12-03T12:47:30.076Z,100526.53
2022-12-03T12:49:58.523Z,100518.78
2022-12-03T12:52:26.739Z,100513.81
2022-12-03T12:54:54.372Z,100514.94
2022-12-03T12:57:22.599Z,100512.63
2022-12-03T12:59:50.680Z,100513.16
2022-12-03T13:02:29.416Z,100512.13
2022-12-03T13:04:56.889Z,100514.06
2022-12-03T13:07:25.876Z,100526.75
2022-12-03T13:09:55.824Z,100524.38
2022-12-03T13:12:23.829Z,100519.41
2022-12-03T13:14:52.185Z,100513.94
2022-12-03T13:17:22.542Z,100511.22
2022-12-03T13:19:58.208Z,100520.81
2022-12-03T13:22:30.943Z,100525.28
2022-12-03T13:24:59.453Z,100518.69
2022-12-03T13:27:31.276Z,100524.38
2022-12-03T13:30:08.420Z,100524.97
2022-12-03T13:32:38.791Z,100522.09
2022-12-03T13:35:07.547Z,100518.56
2022-12-03T13:37:34.921Z,100519.28
2022-12-03T13:40:20.109Z,100520.69
2022-12-03T13:42:48.612Z,100523.00
2022-12-03T13:45:18.975Z,100519.06
2022-12-03T13:47:50.716Z,100520.00
2022-12-03T13:50:36.584Z,100523.09
2022-12-03T13:53:21.095Z,100524.28
2022-12-03T13:56:19.956Z,100519.69
2022-12-03T13:58:47.462Z,100519.38
2022-12-03T14:01:15.132Z,100523.09
2022-12-03T14:03:42.837Z,100519.03
2022-12-03T14:06:10.224Z,100519.53
2022-12-03T14:08:37.826Z,100528.16
2022-12-03T14:11:05.587Z,100524.16
2022-12-03T14:13:33.110Z,100533.69
2022-12-03T14:16:00.545Z,100533.28
2022-12-03T14:18:28.201Z,100548.78
2022-12-03T14:20:55.607Z,100539.97
2022-12-03T14:23:22.976Z,100536.91
2022-12-03T14:25:50.733Z,100550.50
2022-12-03T14:28:18.096Z,100540.41
2022-12-03T14:30:45.508Z,100539.13
2022-12-03T14:33:13.151Z,100535.41
2022-12-03T14:35:40.847Z,100531.00
2022-12-03T14:38:08.159Z,100537.75
2022-12-03T14:40:35.892Z,100537.22
2022-12-03T14:43:03.517Z,100542.47
2022-12-03T14:45:30.916Z,100535.28
2022-12-03T14:47:58.584Z,100532.13
2022-12-03T14:50:26.180Z,100537.81
2022-12-03T14:52:53.605Z,100542.03
2022-12-03T14:55:21.300Z,100534.00
2022-12-03T14:57:48.787Z,100550.94
2022-12-03T15:00:16.583Z,100537.47
2022-12-03T15:02:44.265Z,100544.72
2022-12-03T15:05:11.809Z,100540.84
2022-12-03T15:07:39.446Z,100542.41
2022-12-03T15:10:07.920Z,100541.91
2022-12-03T15:12:35.442Z,100548.75
2022-12-03T15:15:02.828Z,100551.25
2022-12-03T15:17:32.145Z,100549.78
2022-12-03T15:19:59.814Z,100557.09
2022-12-03T15:22:27.188Z,100563.06
2022-12-03T15:24:54.846Z,100558.06
2022-12-03T15:27:22.309Z,100555.50
2022-12-03T15:29:49.718Z,100561.88
2022-12-03T15:32:17.665Z,100551.66
2022-12-03T15:34:45.076Z,100559.16
2022-12-03T15:37:12.436Z,100561.81
2022-12-03T15:39:46.552Z,100564.41
2022-12-03T15:42:15.836Z,100562.00
2022-12-03T15:44:43.623Z,100553.59
2022-12-03T15:47:10.989Z,100566.03
2022-12-03T15:49:38.387Z,100571.88
2022-12-03T15:52:08.130Z,100559.59
2022-12-03T15:54:35.509Z,100554.56
2022-12-03T15:57:02.951Z,100562.84
2022-12-03T15:59:30.648Z,100564.00
2022-12-03T16:01:58.130Z,100557.62
2022-12-03T16:04:25.921Z,100566.81
2022-12-03T16:06:53.525Z,100570.53
2022-12-03T16:09:26.705Z,100564.31
2022-12-03T16:11:55.144Z,100561.59
2022-12-03T16:14:22.589Z,100560.69
2022-12-03T16:16:49.950Z,100560.78
2022-12-03T16:19:17.598Z,100563.81
2022-12-03T16:21:44.953Z,100563.75
2022-12-03T16:24:12.308Z,100567.50
2022-12-03T16:26:39.949Z,100574.56
2022-12-03T16:29:09.482Z,100567.81
2022-12-03T16:31:39.344Z,100564.50
2022-12-03T16:34:09.844Z,100568.38
2022-12-03T16:36:37.203Z,100570.28
2022-12-03T16:39:04.926Z,100569.84
2022-12-03T16:41:32.574Z,100577.50
2022-12-03T16:44:02.563Z,100580.06
2022-12-03T16:46:30.389Z,100576.34
2022-12-03T16:48:58.278Z,100574.94
2022-12-03T16:51:26.101Z,100578.31
2022-12-03T16:53:53.790Z,100575.09
2022-12-03T16:56:21.499Z,100576.91
2022-12-03T16:58:48.862Z,100563.34
2022-12-03T17:01:16.625Z,100570.88
2022-12-03T17:03:44.412Z,100573.03
2022-12-03T17:06:11.757Z,100574.22
2022-12-03T17:08:41.041Z,100573.22
2022-12-03T17:11:10.882Z,100573.38
2022-12-03T17:13:38.250Z,100575.41
2022-12-03T17:16:06.837Z,100565.09
2022-12-03T17:18:34.540Z,100571.88
2022-12-03T17:21:01.901Z,100571.41
2022-12-03T17:23:29.257Z,100567.56
2022-12-03T17:25:56.890Z,100565.06
2022-12-03T17:28:24.322Z,100571.28
2022-12-03T17:30:51.759Z,100572.72
2022-12-03T17:33:19.377Z,100567.38
2022-12-03T17:35:46.707Z,100565.25
2022-12-03T17:38:14.065Z,100556.53
2022-12-03T17:40:41.735Z,100558.69
2022-12-03T17:43:09.184Z,100554.50
2022-12-03T17:45:36.785Z,100563.19
2022-12-03T17:48:04.718Z,100555.09
2022-12-03T17:50:32.125Z,100557.53
2022-12-03T17:52:59.578Z,100560.62
2022-12-03T17:55:37.038Z,100564.00
2022-12-03T17:58:08.448Z,100565.69
2022-12-03T18:00:36.156Z,100573.50
2022-12-03T18:03:03.798Z,100574.12
2022-12-03T18:05:31.184Z,100561.66
2022-12-03T18:07:58.605Z,100570.75
2022-12-03T18:10:26.247Z,100578.22
2022-12-03T18:12:58.330Z,100567.78
2022-12-03T18:15:29.211Z,100574.19
2022-12-03T18:17:56.649Z,100572.63
2022-12-03T18:20:23.977Z,100577.16
2022-12-03T18:22:51.588Z,100575.41
2022-12-03T18:25:18.941Z,100574.44
2022-12-03T18:27:46.260Z,100575.50
2022-12-03T18:30:14.008Z,100574.59
2022-12-03T18:32:41.471Z,100572.47
2022-12-03T18:35:08.889Z,100566.37
2022-12-03T18:37:36.473Z,100574.25
2022-12-03T18:40:12.458Z,100576.03
2022-12-03T18:42:40.883Z,100573.16
2022-12-03T18:45:10.672Z,100571.19
2022-12-03T18:47:38.089Z,100572.03
2022-12-03T18:50:07.050Z,100578.81
2022-12-03T18:52:34.422Z,100576.94
2022-12-03T18:55:01.886Z,100574.03
2022-12-03T18:57:29.468Z,100582.34
2022-12-03T18:59:57.230Z,100578.22
2022-12-03T19:05:12.405Z,100572.28
2022-12-03T19:07:39.868Z,100565.44
2022-12-03T19:10:07.944Z,100570.88
2022-12-03T19:12:35.888Z,100562.72
2022-12-03T19:15:03.672Z,100570.13
2022-12-03T19:17:31.443Z,100567.94
2022-12-03T19:19:59.176Z,100573.38
2022-12-03T19:22:26.533Z,100570.88
2022-12-03T19:24:53.839Z,100579.69
2022-12-03T19:27:21.522Z,100578.78
2022-12-03T19:29:48.955Z,100575.84
2022-12-03T19:32:16.324Z,100584.31
2022-12-03T19:34:44.038Z,100586.28
2022-12-03T19:37:11.376Z,100596.13
2022-12-03T19:39:38.696Z,100599.19
2022-12-03T19:42:06.417Z,100596.56
2022-12-03T19:44:33.729Z,100603.09
2022-12-03T19:47:01.084Z,100597.34
2022-12-03T19:49:28.699Z,100609.94
2022-12-03T19:51:56.179Z,100607.06
2022-12-03T19:54:24.346Z,100603.72
2022-12-03T19:56:51.981Z,100604.81
2022-12-03T19:59:19.351Z,100607.75
2022-12-03T20:01:46.949Z,100600.97
2022-12-03T20:04:14.821Z,100604.56
2022-12-03T20:06:42.170Z,100606.28
2022-12-03T20:09:13.495Z,100604.88
2022-12-03T20:11:41.443Z,100607.72
2022-12-03T20:14:10.497Z,100609.78
2022-12-03T20:16:37.876Z,100598.81
2022-12-03T20:19:06.214Z,100601.78
2022-12-03T20:21:35.026Z,100604.50
2022-12-03T20:24:02.400Z,100609.97
2022-12-03T20:26:30.048Z,100597.91
2022-12-03T20:28:57.448Z,100600.22
2022-12-03T20:31:28.672Z,100600.84
2022-12-03T20:33:58.229Z,100595.97
2022-12-03T20:36:25.752Z,100584.47
2022-12-03T20:38:57.168Z,100597.59
2022-12-03T20:41:24.894Z,100592.16
2022-12-03T20:43:52.249Z,100595.31
2022-12-03T20:46:21.503Z,100590.09
2022-12-03T20:48:49.131Z,100599.34
2022-12-03T20:51:18.117Z,100587.16
2022-12-03T20:53:45.769Z,100583.06
2022-12-03T20:56:27.753Z,100587.28
2022-12-03T20:58:55.082Z,100592.66
2022-12-03T21:01:24.795Z,100586.44
2022-12-03T21:03:52.979Z,100581.69
2022-12-03T21:06:20.818Z,100576.72
2022-12-03T21:08:48.759Z,100576.44
2022-12-03T21:11:18.351Z,100571.44
2022-12-03T21:13:45.804Z,100575.38
2022-12-03T21:16:15.295Z,100583.22
2022-12-03T21:18:42.784Z,100575.94
2022-12-03T21:21:14.126Z,100571.78
2022-12-03T21:23:41.741Z,100582.50
2022-12-03T21:26:11.802Z,100579.72
2022-12-03T21:28:39.838Z,100568.87
2022-12-03T21:31:08.949Z,100579.28
2022-12-03T21:33:36.440Z,100583.53
2022-12-03T21:36:04.856Z,100579.81
2022-12-03T21:38:32.652Z,100579.66
2022-12-03T21:41:00.136Z,100568.00
2022-12-03T21:43:27.587Z,100573.34
2022-12-03T21:45:55.292Z,100570.62
2022-12-03T21:48:22.785Z,100562.72
2022-12-03T21:51:00.609Z,100575.91
2022-12-03T21:53:28.459Z,100571.34
2022-12-03T21:55:55.947Z,100567.62
2022-12-03T21:58:23.328Z,100567.03
2022-12-03T22:00:51.118Z,100566.37
2022-12-03T22:03:18.788Z,100571.75
2022-12-03T22:05:46.214Z,100563.78
2022-12-03T22:08:13.862Z,100571.50
2022-12-03T22:10:41.658Z,100569.28
2022-12-03T22:13:09.070Z,100562.31
2022-12-03T22:15:40.149Z,100566.97
2022-12-03T22:18:07.799Z,100567.62
2022-12-03T22:20:35.132Z,100574.72
2022-12-03T22:23:02.501Z,100569.09
2022-12-03T22:25:30.593Z,100567.53
2022-12-03T22:27:57.982Z,100567.91
2022-12-03T22:30:25.461Z,100566.53
2022-12-03T22:32:53.067Z,100559.34
2022-12-03T22:35:20.407Z,100559.00
2022-12-03T22:37:47.853Z,100559.97
2022-12-03T22:40:15.654Z,100563.16
2022-12-03T22:42:47.774Z,100560.41
2022-12-03T22:45:18.431Z,100552.16
2022-12-03T22:47:45.766Z,100560.19
2022-12-03T22:50:13.139Z,100556.94
2022-12-03T22:52:40.771Z,100558.72
2022-12-03T22:55:08.514Z,100552.31
2022-12-03T22:57:36.004Z,100545.13
2022-12-03T23:00:06.974Z,100555.56
2022-12-03T23:02:34.367Z,100553.44
2022-12-03T23:05:01.734Z,100551.12
2022-12-03T23:07:29.439Z,100554.38
2022-12-03T23:09:57.076Z,100559.13
2022-12-03T23:12:24.660Z,100552.50
2022-12-03T23:14:54.178Z,100546.28
2022-12-03T23:17:21.617Z,100543.44
2022-12-03T23:19:48.945Z,100545.22
2022-12-03T23:22:16.574Z,100552.37
2022-12-03T23:24:43.929Z,100547.78
2022-12-03T23:27:11.252Z,100546.47
2022-12-03T23:29:38.882Z,100543.28
2022-12-03T23:32:06.195Z,100542.28
2022-12-03T23:34:33.602Z,100539.78
2022-12-03T23:37:01.315Z,100535.94
2022-12-03T23:39:28.676Z,100534.69
2022-12-03T23:41:56.018Z,100528.50
2022-12-03T23:44:23.731Z,100534.41
2022-12-03T23:46:51.242Z,100523.84
2022-12-03T23:49:18.616Z,100529.78
2022-12-03T23:51:46.264Z,100528.75
2022-12-03T23:54:13.595Z,100529.84
2022-12-03T23:56:41.012Z,100530.59
2022-12-03T23:59:08.788Z,100518.06
